New Canaan, Connecticut
Current Conditions -  °F | °C
As of 5:56 AM on Monday 20 Oct 2014 (Local Time) from KHPN Reporting Station
Clear Clear  
Wind Chill: 34°   Ceiling: Unl
Heat Index: 38°   Visibility: 10mi
Dew Point: 30°   Wind: 5mph
Humidity: 73%   Direction: 240°WSW
Pressure: 30.07"   Gusts: NA
Location:  41.15°N, 73.5°W
Report Text: KHPN 200956Z 24004KT 10SM CLR 03/M01 A3007 RMK AO2 SLP187 T00331011
Loading
Personal Weather Stations






























Interactive Weather Map
Tropical Storm Tracking
New forecast layout! Learn more

10-Day Weather Forecast

Advertisements
Track Severe Weather on mobile